createdAt,value
2023-02-17T00:00:08.153Z,28.50
2023-02-17T00:02:58.241Z,28.00
2023-02-17T00:05:28.039Z,30.25
2023-02-17T00:07:56.314Z,28.00
2023-02-17T00:10:24.694Z,28.67
2023-02-17T00:12:53.176Z,29.75
2023-02-17T00:15:21.965Z,23.50
2023-02-17T00:17:50.240Z,25.00
2023-02-17T00:20:19.051Z,24.50
2023-02-17T00:22:47.516Z,26.75
2023-02-17T00:25:16.298Z,28.50
2023-02-17T00:27:44.579Z,29.33
2023-02-17T00:30:13.505Z,24.50
2023-02-17T00:32:41.849Z,31.50
2023-02-17T00:35:10.254Z,30.00
2023-02-17T00:37:38.813Z,25.00
2023-02-17T00:40:08.210Z,17.75
2023-02-17T00:42:36.507Z,23.00
2023-02-17T00:45:05.820Z,24.50
2023-02-17T00:47:34.178Z,25.50
2023-02-17T00:50:02.566Z,19.33
2023-02-17T00:52:30.944Z,24.00
2023-02-17T00:54:59.426Z,23.33
2023-02-17T00:57:27.820Z,18.50
2023-02-17T00:59:57.200Z,20.00
2023-02-17T01:02:25.477Z,21.00
2023-02-17T01:04:54.544Z,25.33
2023-02-17T01:07:23.053Z,24.33
2023-02-17T01:09:51.539Z,22.00
2023-02-17T01:12:19.932Z,21.00
2023-02-17T01:14:48.712Z,20.67
2023-02-17T01:17:16.981Z,22.00
2023-02-17T01:19:45.473Z,26.00
2023-02-17T01:22:13.946Z,22.75
2023-02-17T01:24:42.326Z,18.00
2023-02-17T01:27:10.809Z,19.75
2023-02-17T01:29:39.293Z,19.50
2023-02-17T01:32:07.774Z,16.67
2023-02-17T01:34:36.252Z,21.33
2023-02-17T01:37:04.943Z,20.67
2023-02-17T01:39:33.425Z,20.33
2023-02-17T01:42:02.018Z,17.50
2023-02-17T01:44:34.085Z,21.67
2023-02-17T01:47:02.443Z,19.50
2023-02-17T01:49:37.476Z,24.00
2023-02-17T01:52:13.629Z,21.67
2023-02-17T01:54:49.623Z,24.00
2023-02-17T01:57:20.459Z,19.67
2023-02-17T01:59:49.191Z,17.33
2023-02-17T02:02:18.236Z,20.00
2023-02-17T02:04:50.078Z,24.00
2023-02-17T02:07:21.976Z,23.75
2023-02-17T02:09:53.490Z,23.00
2023-02-17T02:12:27.857Z,22.33
2023-02-17T02:14:59.965Z,22.67
2023-02-17T02:17:37.576Z,26.00
2023-02-17T02:20:23.681Z,23.33
2023-02-17T02:22:51.963Z,23.50
2023-02-17T02:25:26.284Z,18.00
2023-02-17T02:28:33.563Z,18.33
2023-02-17T02:31:09.504Z,24.67
2023-02-17T02:33:48.650Z,21.75
2023-02-17T02:36:28.908Z,18.50
2023-02-17T02:39:05.174Z,22.50
2023-02-17T02:41:58.027Z,20.50
2023-02-17T02:44:26.608Z,16.50
2023-02-17T02:47:07.037Z,24.50
2023-02-17T02:49:37.297Z,17.67
2023-02-17T02:52:20.519Z,17.33
2023-02-17T02:55:00.371Z,16.50
2023-02-17T02:57:40.025Z,21.00
2023-02-17T03:00:08.496Z,19.50
2023-02-17T03:02:48.860Z,23.00
2023-02-17T03:05:34.353Z,18.75
2023-02-17T03:08:13.250Z,21.00
2023-02-17T03:10:49.914Z,21.25
2023-02-17T03:13:19.443Z,17.00
2023-02-17T03:15:48.743Z,18.00
2023-02-17T03:18:17.233Z,21.00
2023-02-17T03:20:51.480Z,16.00
2023-02-17T03:23:20.237Z,20.00
2023-02-17T03:25:48.608Z,15.50
2023-02-17T03:28:17.006Z,22.00
2023-02-17T03:30:45.386Z,23.00
2023-02-17T03:33:13.848Z,20.50
2023-02-17T03:35:42.329Z,20.50
2023-02-17T03:38:10.812Z,21.00
2023-02-17T03:40:39.249Z,21.75
2023-02-17T03:43:07.778Z,24.25
2023-02-17T03:45:37.909Z,16.50
2023-02-17T03:48:06.565Z,23.75
2023-02-17T03:50:34.859Z,21.50
2023-02-17T03:53:03.241Z,19.33
2023-02-17T03:55:31.617Z,19.00
2023-02-17T03:58:00.108Z,18.50
2023-02-17T04:00:28.591Z,18.67
2023-02-17T04:02:59.828Z,15.67
2023-02-17T04:05:28.514Z,23.50
2023-02-17T04:07:57.099Z,25.00
2023-02-17T04:10:25.601Z,28.25
2023-02-17T04:12:54.065Z,23.00
2023-02-17T04:15:22.455Z,23.50
2023-02-17T04:17:50.834Z,19.00
2023-02-17T04:20:19.713Z,20.67
2023-02-17T04:22:48.216Z,19.00
2023-02-17T04:25:16.687Z,20.00
2023-02-17T04:27:45.153Z,22.00
2023-02-17T04:30:14.547Z,24.50
2023-02-17T04:32:42.945Z,20.00
2023-02-17T04:35:11.316Z,16.67
2023-02-17T04:37:39.797Z,23.67
2023-02-17T04:40:10.710Z,17.50
2023-02-17T04:42:39.432Z,20.50
2023-02-17T04:45:08.623Z,23.00
2023-02-17T04:47:37.203Z,21.50
2023-02-17T04:50:07.431Z,17.00
2023-02-17T04:52:35.807Z,19.67
2023-02-17T04:55:05.843Z,23.00
2023-02-17T04:57:34.718Z,21.00
2023-02-17T05:00:05.280Z,21.33
2023-02-17T05:02:33.522Z,17.67
2023-02-17T05:05:02.086Z,23.00
2023-02-17T05:07:30.693Z,14.25
2023-02-17T05:09:59.172Z,21.75
2023-02-17T05:12:27.760Z,20.00
2023-02-17T05:14:56.143Z,18.00
2023-02-17T05:17:24.614Z,23.50
2023-02-17T05:19:53.109Z,22.75
2023-02-17T05:22:21.478Z,19.00
2023-02-17T05:24:49.958Z,24.00
2023-02-17T05:27:18.439Z,20.33
2023-02-17T05:29:47.131Z,24.00
2023-02-17T05:32:15.917Z,21.25
2023-02-17T05:34:44.399Z,21.67
2023-02-17T05:37:12.886Z,19.00
2023-02-17T05:39:41.373Z,20.33
2023-02-17T05:42:09.844Z,16.00
2023-02-17T05:44:38.327Z,25.25
2023-02-17T05:47:06.811Z,22.50
2023-02-17T05:49:35.289Z,21.00
2023-02-17T05:52:03.773Z,19.67
2023-02-17T05:54:32.254Z,20.75
2023-02-17T05:57:00.762Z,21.67
2023-02-17T05:59:29.221Z,22.00
2023-02-17T06:01:57.595Z,24.67
2023-02-17T06:04:26.100Z,24.33
2023-02-17T06:06:54.464Z,24.67
2023-02-17T06:09:22.944Z,28.50
2023-02-17T06:11:51.425Z,30.50
2023-02-17T06:14:19.908Z,31.33
2023-02-17T06:16:48.300Z,23.67
2023-02-17T06:19:16.768Z,17.33
2023-02-17T06:21:45.250Z,15.50
2023-02-17T06:24:13.748Z,26.67
2023-02-17T06:26:42.313Z,22.50
2023-02-17T06:29:10.694Z,21.25
2023-02-17T06:31:39.267Z,20.00
2023-02-17T06:34:07.974Z,27.00
2023-02-17T06:36:36.553Z,21.67
2023-02-17T06:39:05.234Z,23.67
2023-02-17T06:41:33.712Z,39.00
2023-02-17T06:44:02.206Z,54.33
2023-02-17T06:46:30.775Z,50.00
2023-02-17T06:49:00.498Z,47.33
2023-02-17T06:51:29.384Z,43.00
2023-02-17T06:53:57.791Z,39.00
2023-02-17T06:56:26.449Z,36.00
2023-02-17T06:58:54.938Z,30.00
2023-02-17T07:01:26.519Z,35.67
2023-02-17T07:03:56.292Z,35.67
2023-02-17T07:06:26.121Z,39.67
2023-02-17T07:08:54.703Z,38.67
2023-02-17T07:11:23.282Z,40.33
2023-02-17T07:13:51.864Z,33.67
2023-02-17T07:16:20.394Z,34.00
2023-02-17T07:18:48.927Z,31.00
2023-02-17T07:21:17.446Z,37.50
2023-02-17T07:23:46.001Z,38.00
2023-02-17T07:26:14.885Z,34.33
2023-02-17T07:28:43.370Z,26.00
2023-02-17T07:31:14.897Z,29.67
2023-02-17T07:33:44.021Z,31.00
2023-02-17T07:36:14.393Z,25.00
2023-02-17T07:38:43.338Z,36.00
2023-02-17T07:41:17.353Z,34.50
2023-02-17T07:43:46.146Z,26.67
2023-02-17T07:46:15.261Z,30.00
2023-02-17T07:48:43.928Z,36.50
2023-02-17T07:51:17.934Z,31.00
2023-02-17T07:53:46.516Z,34.67
2023-02-17T07:56:16.628Z,33.00
2023-02-17T07:58:45.831Z,29.50
2023-02-17T08:01:20.256Z,36.67
2023-02-17T08:03:49.670Z,40.00
2023-02-17T08:06:20.700Z,32.00
2023-02-17T08:09:09.045Z,34.00
2023-02-17T08:11:56.473Z,34.00
2023-02-17T08:14:27.494Z,39.33
2023-02-17T08:16:56.466Z,30.67
2023-02-17T08:19:28.406Z,27.67
2023-02-17T08:21:58.698Z,33.00
2023-02-17T08:24:27.604Z,32.33
2023-02-17T08:26:56.173Z,33.00
2023-02-17T08:29:24.450Z,36.00
2023-02-17T08:31:53.995Z,34.00
2023-02-17T08:34:22.433Z,35.00
2023-02-17T08:36:50.830Z,35.00
2023-02-17T08:39:19.497Z,31.00
2023-02-17T08:41:48.723Z,40.67
2023-02-17T08:44:18.924Z,33.00
2023-02-17T08:46:48.434Z,39.00
2023-02-17T08:49:21.823Z,33.00
2023-02-17T08:51:50.926Z,37.00
2023-02-17T08:54:19.343Z,32.00
2023-02-17T08:56:47.883Z,39.33
2023-02-17T08:59:16.467Z,37.00
2023-02-17T09:01:45.025Z,36.67
2023-02-17T09:04:15.490Z,21.33
2023-02-17T09:06:47.578Z,41.67
2023-02-17T09:09:18.078Z,40.50
2023-02-17T09:11:46.450Z,34.00
2023-02-17T09:14:15.205Z,36.00
2023-02-17T09:16:43.578Z,35.50
2023-02-17T09:19:12.042Z,35.00
2023-02-17T09:21:40.514Z,35.00
2023-02-17T09:24:09.071Z,34.33
2023-02-17T09:26:37.757Z,36.67
2023-02-17T09:29:07.132Z,37.67
2023-02-17T09:31:36.566Z,37.00
2023-02-17T09:34:05.472Z,35.50
2023-02-17T09:36:41.425Z,32.67
2023-02-17T09:39:12.931Z,30.00
2023-02-17T09:41:48.180Z,36.00
2023-02-17T09:44:31.851Z,36.50
2023-02-17T09:47:08.207Z,35.33
2023-02-17T09:49:54.945Z,40.00
2023-02-17T09:52:57.061Z,41.67
2023-02-17T09:55:37.971Z,31.67
2023-02-17T09:58:22.324Z,36.00
2023-02-17T10:00:57.248Z,29.33
2023-02-17T10:03:33.882Z,32.67
2023-02-17T10:06:22.111Z,38.67
2023-02-17T10:09:08.605Z,42.00
2023-02-17T10:11:42.924Z,46.00
2023-02-17T10:14:21.608Z,50.33
2023-02-17T10:16:56.868Z,42.67
2023-02-17T10:19:39.751Z,45.50
2023-02-17T10:22:15.373Z,50.67
2023-02-17T10:24:43.822Z,47.00
2023-02-17T10:27:15.469Z,51.00
2023-02-17T10:30:21.133Z,54.00
2023-02-17T10:33:03.013Z,52.50
2023-02-17T10:35:56.419Z,52.00
2023-02-17T10:38:37.139Z,35.00
2023-02-17T10:41:07.342Z,51.00
2023-02-17T10:43:36.146Z,49.67
2023-02-17T10:46:07.906Z,53.33
2023-02-17T10:48:44.522Z,47.50
2023-02-17T10:51:19.504Z,41.00
2023-02-17T10:54:07.769Z,48.00
2023-02-17T10:56:40.541Z,49.50
2023-02-17T10:59:21.687Z,51.33
2023-02-17T11:01:50.508Z,45.67
2023-02-17T11:04:19.012Z,46.67
2023-02-17T11:06:53.007Z,47.33
2023-02-17T11:09:28.998Z,43.67
2023-02-17T11:12:13.416Z,37.00
2023-02-17T11:14:50.412Z,47.00
2023-02-17T11:17:24.893Z,47.00
2023-02-17T11:20:04.803Z,46.50
2023-02-17T11:22:41.335Z,42.67
2023-02-17T11:25:26.501Z,44.50
2023-02-17T11:27:58.673Z,46.00
2023-02-17T11:30:29.473Z,38.50
2023-02-17T11:32:58.212Z,43.00
2023-02-17T11:35:32.524Z,46.33
2023-02-17T11:38:02.667Z,45.50
2023-02-17T11:40:33.010Z,47.67
2023-02-17T11:43:02.726Z,43.50
2023-02-17T11:46:12.562Z,43.00
2023-02-17T11:49:26.282Z,52.67
2023-02-17T11:52:25.385Z,62.00
2023-02-17T11:55:31.644Z,60.67
2023-02-17T11:58:14.189Z,52.50
2023-02-17T12:01:23.815Z,46.67
2023-02-17T12:04:22.491Z,49.67
2023-02-17T12:07:19.545Z,48.00
2023-02-17T12:10:00.206Z,49.33
2023-02-17T12:12:35.555Z,51.00
2023-02-17T12:15:25.942Z,48.33
2023-02-17T12:18:35.795Z,43.33
2023-02-17T12:21:38.584Z,51.33
2023-02-17T12:24:31.434Z,51.00
2023-02-17T12:27:09.335Z,49.00
2023-02-17T12:30:02.247Z,52.00
2023-02-17T12:32:55.351Z,51.00
2023-02-17T12:35:26.915Z,45.00
2023-02-17T12:38:00.031Z,42.67
2023-02-17T12:40:39.434Z,49.00
2023-02-17T12:43:13.955Z,49.00
2023-02-17T12:45:44.740Z,49.00
2023-02-17T12:48:27.417Z,50.00
2023-02-17T12:51:17.190Z,48.33
2023-02-17T12:53:51.709Z,48.50
2023-02-17T12:56:26.174Z,46.00
2023-02-17T12:58:57.981Z,40.33
2023-02-17T13:01:30.135Z,50.67
2023-02-17T13:04:02.229Z,44.50
2023-02-17T13:06:37.818Z,43.33
2023-02-17T13:09:35.344Z,39.00
2023-02-17T13:12:22.462Z,47.50
2023-02-17T13:15:02.524Z,50.00
2023-02-17T13:17:35.195Z,44.00
2023-02-17T13:20:25.324Z,50.67
2023-02-17T13:23:05.700Z,47.00
2023-02-17T13:25:37.510Z,45.00
2023-02-17T13:28:33.468Z,39.50
2023-02-17T13:31:18.932Z,47.33
2023-02-17T13:33:56.308Z,40.33
2023-02-17T13:36:33.696Z,42.00
2023-02-17T13:39:27.420Z,39.50
2023-02-17T13:42:00.582Z,33.33
2023-02-17T13:44:41.328Z,38.50
2023-02-17T13:47:20.051Z,43.67
2023-02-17T13:49:57.224Z,39.67
2023-02-17T13:52:30.861Z,44.00
2023-02-17T13:55:05.425Z,39.00
2023-02-17T13:57:36.994Z,38.00
2023-02-17T14:00:06.415Z,49.00
2023-02-17T14:02:39.094Z,39.00
2023-02-17T14:05:37.591Z,46.33
2023-02-17T14:08:15.390Z,44.50
2023-02-17T14:10:44.171Z,40.00
2023-02-17T14:13:13.072Z,41.67
2023-02-17T14:15:53.356Z,41.00
2023-02-17T14:18:44.819Z,40.33
2023-02-17T14:21:25.712Z,43.00
2023-02-17T14:23:56.148Z,38.33
2023-02-17T14:26:27.519Z,43.67
2023-02-17T14:28:58.442Z,36.50
2023-02-17T14:31:27.873Z,38.50
2023-02-17T14:34:02.481Z,38.50
2023-02-17T14:36:38.896Z,36.50
2023-02-17T14:39:09.460Z,37.33
2023-02-17T14:41:38.551Z,41.00
2023-02-17T14:44:07.544Z,43.50
2023-02-17T14:46:36.367Z,38.00
2023-02-17T14:49:04.615Z,33.33
2023-02-17T14:51:36.104Z,35.50
2023-02-17T14:54:15.102Z,42.00
2023-02-17T14:57:09.398Z,38.00
2023-02-17T14:59:37.867Z,44.50
2023-02-17T15:02:24.882Z,38.00
2023-02-17T15:04:53.505Z,38.67
2023-02-17T15:07:21.950Z,35.67
2023-02-17T15:09:50.536Z,41.33
2023-02-17T15:12:21.504Z,40.00
2023-02-17T15:14:50.079Z,45.00
2023-02-17T15:17:18.642Z,41.67
2023-02-17T15:19:47.118Z,31.67
2023-02-17T15:22:15.705Z,33.00
2023-02-17T15:24:44.216Z,35.33
2023-02-17T15:27:15.738Z,34.00
2023-02-17T15:29:44.222Z,37.00
2023-02-17T15:32:24.313Z,32.00
2023-02-17T15:34:52.762Z,37.33
2023-02-17T15:37:21.140Z,43.50
2023-02-17T15:39:49.633Z,36.67
2023-02-17T15:42:18.613Z,38.00
2023-02-17T15:44:49.652Z,39.00
2023-02-17T15:47:19.461Z,32.00
2023-02-17T15:49:47.859Z,32.50
2023-02-17T15:52:16.342Z,39.00
2023-02-17T15:54:44.934Z,38.33
2023-02-17T15:57:21.795Z,28.50
2023-02-17T15:59:50.672Z,35.67
2023-02-17T16:02:22.451Z,32.00
2023-02-17T16:04:50.913Z,36.00
2023-02-17T16:07:19.600Z,42.00
2023-02-17T16:09:47.989Z,39.00
2023-02-17T16:12:19.432Z,34.33
2023-02-17T16:14:47.705Z,33.50
2023-02-17T16:17:17.112Z,39.33
2023-02-17T16:19:45.396Z,33.00
2023-02-17T16:22:14.792Z,32.67
2023-02-17T16:24:43.174Z,33.50
2023-02-17T16:27:17.102Z,36.50
2023-02-17T16:29:45.474Z,38.00
2023-02-17T16:32:14.120Z,37.00
2023-02-17T16:34:43.248Z,37.33
2023-02-17T16:37:16.856Z,34.33
2023-02-17T16:39:45.638Z,36.00
2023-02-17T16:42:15.789Z,28.67
2023-02-17T16:44:44.754Z,28.00
2023-02-17T16:47:20.696Z,34.50
2023-02-17T16:49:50.729Z,30.67
2023-02-17T16:52:27.757Z,33.67
2023-02-17T16:54:56.193Z,33.00
2023-02-17T16:57:26.636Z,35.00
2023-02-17T16:59:56.426Z,38.67
2023-02-17T17:02:24.757Z,37.33
2023-02-17T17:04:53.290Z,32.00
2023-02-17T17:07:21.767Z,31.33
2023-02-17T17:10:14.800Z,35.33
2023-02-17T17:13:08.830Z,32.67
2023-02-17T17:15:39.147Z,36.50
2023-02-17T17:18:09.445Z,33.00
2023-02-17T17:20:41.617Z,37.00
2023-02-17T17:23:15.107Z,41.50
2023-02-17T17:25:48.856Z,40.00
2023-02-17T17:28:19.644Z,31.00
2023-02-17T17:30:49.279Z,35.00
2023-02-17T17:33:17.648Z,37.00
2023-02-17T17:35:46.131Z,40.50
2023-02-17T17:38:16.152Z,29.50
2023-02-17T17:40:50.630Z,31.00
2023-02-17T17:43:21.207Z,42.00
2023-02-17T17:45:50.984Z,24.00
2023-02-17T17:48:19.735Z,36.00
2023-02-17T17:50:49.733Z,27.00
2023-02-17T17:53:18.413Z,42.00
2023-02-17T17:55:48.478Z,33.00
2023-02-17T17:58:17.657Z,36.00
2023-02-17T18:00:46.006Z,34.00
2023-02-17T18:03:14.691Z,37.00
2023-02-17T18:05:43.184Z,37.50
2023-02-17T18:08:12.811Z,37.00
2023-02-17T18:13:11.389Z,39.50
2023-02-17T18:15:41.640Z,30.50
2023-02-17T18:18:11.730Z,39.00
2023-02-17T18:20:40.212Z,29.00
2023-02-17T18:23:08.829Z,26.00
2023-02-17T18:25:37.483Z,28.00
2023-02-17T18:28:05.871Z,26.00
2023-02-17T18:33:02.925Z,48.00
2023-02-17T18:35:35.972Z,34.00
2023-02-17T18:40:32.972Z,38.00
2023-02-17T18:43:01.457Z,41.00
2023-02-17T18:45:30.346Z,30.00
2023-02-17T18:47:59.205Z,40.00
2023-02-17T18:50:27.966Z,31.00
2023-02-17T18:52:56.402Z,39.00
2023-02-17T18:55:24.800Z,36.50
2023-02-17T18:57:54.493Z,39.00
2023-02-17T19:00:24.375Z,33.00
2023-02-17T19:02:52.713Z,30.00
2023-02-17T19:05:21.265Z,37.00
2023-02-17T19:07:49.750Z,43.00
2023-02-17T19:10:18.508Z,34.00
2023-02-17T19:12:46.924Z,30.50
2023-02-17T19:15:17.653Z,31.00
2023-02-17T19:17:46.231Z,32.50
2023-02-17T19:20:17.377Z,35.00
2023-02-17T19:22:45.781Z,35.50
2023-02-17T19:25:14.290Z,29.00
2023-02-17T19:27:42.833Z,33.00
2023-02-17T19:30:12.392Z,17.00
2023-02-17T19:32:40.912Z,38.50
2023-02-17T19:35:11.674Z,34.50
2023-02-17T19:40:09.244Z,26.50
2023-02-17T19:42:37.667Z,39.00
2023-02-17T19:45:07.336Z,35.00
2023-02-17T19:47:35.703Z,32.00
2023-02-17T19:50:04.587Z,31.00
2023-02-17T19:52:33.192Z,28.00
2023-02-17T19:55:01.685Z,28.50
2023-02-17T19:57:30.266Z,36.00
2023-02-17T19:59:58.825Z,38.00
2023-02-17T20:02:27.531Z,38.00
2023-02-17T20:04:55.997Z,27.50
2023-02-17T20:07:24.835Z,32.00
2023-02-17T20:09:53.261Z,35.00
2023-02-17T20:12:22.200Z,28.00
2023-02-17T20:14:53.034Z,30.00
2023-02-17T20:17:21.697Z,32.50
2023-02-17T20:19:50.078Z,35.00
2023-02-17T20:22:18.640Z,29.50
2023-02-17T20:24:47.224Z,31.50
2023-02-17T20:27:16.538Z,32.00
2023-02-17T20:29:45.008Z,31.00
2023-02-17T20:32:13.659Z,31.00
2023-02-17T20:34:42.686Z,31.00
2023-02-17T20:37:11.578Z,30.00
2023-02-17T20:39:41.497Z,26.00
2023-02-17T20:42:10.084Z,32.00
2023-02-17T20:44:39.154Z,36.00
2023-02-17T20:47:07.973Z,33.50
2023-02-17T20:49:36.658Z,31.00
2023-02-17T20:52:06.090Z,4.00
2023-02-17T20:54:35.056Z,32.00
2023-02-17T20:59:32.952Z,35.00
2023-02-17T21:02:01.455Z,31.00
2023-02-17T21:04:30.004Z,24.50
2023-02-17T21:07:00.419Z,29.50
2023-02-17T21:09:29.938Z,28.00
2023-02-17T21:11:58.528Z,26.50
2023-02-17T21:14:27.015Z,36.00
2023-02-17T21:16:55.689Z,31.00
2023-02-17T21:19:24.278Z,20.00
2023-02-17T21:21:52.755Z,31.00
2023-02-17T21:24:21.337Z,36.00
2023-02-17T21:26:49.819Z,33.50
2023-02-17T21:29:18.301Z,35.00
2023-02-17T21:31:46.878Z,31.00
2023-02-17T21:34:15.480Z,27.67
2023-02-17T21:36:43.850Z,35.00
2023-02-17T21:39:12.839Z,39.00
2023-02-17T21:41:42.650Z,27.00
2023-02-17T21:44:32.645Z,27.00
2023-02-17T21:47:01.227Z,27.50
2023-02-17T21:49:29.712Z,33.50
2023-02-17T21:51:58.398Z,29.75
2023-02-17T21:54:26.975Z,32.00
2023-02-17T21:56:55.571Z,27.00
2023-02-17T21:59:24.251Z,32.00
2023-02-17T22:01:53.351Z,36.00
2023-02-17T22:04:22.267Z,32.00
2023-02-17T22:06:51.017Z,32.00
2023-02-17T22:09:19.513Z,33.00
2023-02-17T22:11:48.136Z,31.00
2023-02-17T22:14:20.808Z,25.00
2023-02-17T22:16:49.634Z,26.00
2023-02-17T22:19:22.333Z,23.00
2023-02-17T22:21:52.044Z,34.00
2023-02-17T22:24:27.375Z,34.00
2023-02-17T22:26:56.302Z,35.00
2023-02-17T22:29:24.661Z,32.00
2023-02-17T22:31:56.371Z,34.00
2023-02-17T22:34:27.866Z,37.00
2023-02-17T22:36:56.358Z,32.00
2023-02-17T22:39:24.972Z,28.00
2023-02-17T22:41:54.041Z,34.50
2023-02-17T22:46:50.902Z,38.00
2023-02-17T22:49:19.374Z,38.50
2023-02-17T22:51:47.862Z,37.00
2023-02-17T22:54:16.336Z,39.00
2023-02-17T22:56:44.923Z,38.50
2023-02-17T22:59:13.505Z,37.00
2023-02-17T23:01:41.986Z,41.00
2023-02-17T23:04:13.576Z,41.00
2023-02-17T23:06:42.752Z,43.50
2023-02-17T23:09:16.858Z,33.00
2023-02-17T23:11:55.166Z,41.50
2023-02-17T23:14:33.887Z,30.00
2023-02-17T23:17:08.765Z,34.00
2023-02-17T23:19:38.537Z,38.00
2023-02-17T23:24:37.977Z,40.00
2023-02-17T23:27:06.443Z,32.00
2023-02-17T23:29:35.347Z,34.00
2023-02-17T23:32:04.121Z,34.00
2023-02-17T23:34:32.704Z,31.00
2023-02-17T23:37:01.501Z,34.00
2023-02-17T23:39:29.881Z,34.00
2023-02-17T23:41:58.453Z,33.00
2023-02-17T23:44:26.947Z,36.00
2023-02-17T23:46:55.417Z,34.00
2023-02-17T23:49:24.001Z,32.50
2023-02-17T23:51:52.896Z,37.00
2023-02-17T23:54:22.403Z,30.00
2023-02-17T23:56:51.425Z,27.50
2023-02-17T23:59:19.779Z,33.00
